Terminal Aerodrome Forecast
Issued by NWS Huntsville, AL

Home | Current Version | Previous Version | Text Only | Print | Product List | Glossary On
Versions: 1 2 3 4 5 6 7 8 9 10 11 12 13 14 15 16 17 18 19 20 21
000
FTUS44 KHUN 221127
TAFHSV
TAF
KHSV 221127Z 2212/2312 VRB05KT P6SM SCT006 SCT012
      TEMPO 2212/2214 BKN006
     FM221400 15004KT P6SM SCT020 BKN060
     FM222000 29012KT 4SM -RA OVC012
     FM230400 33015G25KT P6SM OVC009=

USA.gov is the U.S. government's official web portal to all federal, state and local government web resources and services.